Time;durP1;ratioP1;P1;durP2;ratioP2;P2;SDS_P1;SDS_P2;PMS_P1;PMS_P2;Temp;Humidity;BMP_temperature;BMP_pressure;BME280_temperature;BME280_humidity;BME280_pressure;Samples;Min_cycle;Max_cycle;Signal;HPM_P1;HPM_P2
2021/12/07 00:00:27;;;;;;;0.10;0.10;;;3.00;99.90;;;;;;4969318;28;20090;-65
2021/12/07 00:02:54;;;;;;;0.10;0.10;;;2.90;99.90;;;;;;4954547;29;20440;-65
2021/12/07 00:05:20;;;;;;;0.10;0.10;;;2.80;99.90;;;;;;4954293;28;20038;-65
2021/12/07 00:07:48;;;;;;;1.17;1.08;;;2.80;99.90;;;;;;4954935;29;20023;-65
2021/12/07 00:10:15;;;;;;;0.10;0.10;;;2.60;99.90;;;;;;4969434;28;20126;-64
2021/12/07 00:12:45;;;;;;;0.10;0.10;;;2.60;99.90;;;;;;4954403;28;20031;-65
2021/12/07 00:15:13;;;;;;;0.30;0.30;;;2.50;99.90;;;;;;4954425;28;20039;-65
2021/12/07 00:17:39;;;;;;;0.10;0.10;;;2.50;99.90;;;;;;4954678;28;20114;-65
2021/12/07 00:20:13;;;;;;;1.17;1.10;;;2.50;99.90;;;;;;4954380;28;20118;-65
2021/12/07 00:22:43;;;;;;;0.10;0.10;;;2.50;99.90;;;;;;4969005;28;20037;-65
2021/12/07 00:25:09;;;;;;;0.10;0.10;;;2.50;99.90;;;;;;4954108;28;20510;-65
2021/12/07 00:27:36;;;;;;;0.10;0.10;;;2.50;99.90;;;;;;4953065;29;20407;-65
2021/12/07 00:30:05;;;;;;;0.10;0.10;;;2.40;99.90;;;;;;4954307;28;20039;-65
2021/12/07 00:32:35;;;;;;;0.22;0.22;;;2.40;99.90;;;;;;4968741;28;20027;-65
2021/12/07 00:37:34;;;;;;;0.10;0.10;;;2.40;99.90;;;;;;4968790;28;20028;-65
2021/12/07 00:40:03;;;;;;;0.10;0.10;;;2.40;99.90;;;;;;4954112;28;20054;-65
2021/12/07 00:42:29;;;;;;;0.10;0.10;;;2.30;99.90;;;;;;4953974;29;20089;-65
2021/12/07 00:44:55;;;;;;;0.10;0.10;;;2.30;99.90;;;;;;4954147;28;20484;-65
2021/12/07 00:47:21;;;;;;;0.28;0.28;;;2.30;99.90;;;;;;4954295;28;20039;-65
2021/12/07 00:49:46;;;;;;;0.20;0.20;;;2.40;99.90;;;;;;4968875;28;20037;-65
2021/12/07 00:52:12;;;;;;;0.25;0.25;;;2.40;99.90;;;;;;4954234;29;20358;-65
2021/12/07 00:54:39;;;;;;;0.10;0.10;;;2.40;99.90;;;;;;4954020;28;20089;-65
2021/12/07 00:57:06;;;;;;;0.10;0.10;;;2.50;99.90;;;;;;4969003;28;20484;-65
2021/12/07 00:59:32;;;;;;;0.10;0.10;;;2.50;99.90;;;;;;4954030;29;20054;-65
2021/12/07 01:01:58;;;;;;;0.20;0.20;;;2.60;99.90;;;;;;4968612;28;20055;-65
2021/12/07 01:04:27;;;;;;;0.10;0.10;;;2.70;99.90;;;;;;4954214;28;20117;-65
2021/12/07 01:25:44;;;;;;;0.28;0.28;;;2.80;99.90;;;;;;4957540;28;20030;-65
2021/12/07 01:28:26;;;;;;;0.10;0.10;;;2.70;99.90;;;;;;4957607;29;20036;-65
2021/12/07 01:31:13;;;;;;;2.40;0.50;;;2.80;99.90;;;;;;4972358;28;20062;-65
2021/12/07 01:44:48;;;;;;;0.40;0.40;;;2.80;99.90;;;;;;4956939;28;20035;-66
2021/12/07 01:47:31;;;;;;;0.10;0.10;;;2.80;99.90;;;;;;4957752;28;20037;-66
2021/12/07 02:00:22;;;;;;;0.38;0.38;;;2.80;99.90;;;;;;4969983;28;20039;-66
2021/12/07 02:02:48;;;;;;;;;;;2.80;99.90;;;;;;4971868;28;20066;-66
2021/12/07 02:05:14;;;;;;;0.00;0.00;;;2.80;99.90;;;;;;4972035;28;19910;-65
2021/12/07 02:07:40;;;;;;;1.35;1.17;;;2.90;99.90;;;;;;4956921;28;20039;-66
2021/12/07 02:10:14;;;;;;;0.20;0.20;;;2.90;99.90;;;;;;4956609;29;20118;-66
2021/12/07 02:12:48;;;;;;;0.00;0.00;;;2.90;99.90;;;;;;4971011;28;20046;-66
2021/12/07 02:15:21;;;;;;;0.10;0.10;;;3.00;99.90;;;;;;4970841;28;20032;-66
2021/12/07 02:17:51;;;;;;;0.10;0.10;;;2.90;99.90;;;;;;4971374;28;20500;-66
2021/12/07 02:20:19;;;;;;;0.63;0.63;;;2.90;99.90;;;;;;4956724;28;20041;-66
2021/12/07 02:22:45;;;;;;;0.75;0.75;;;3.00;99.90;;;;;;4956179;28;20448;-66
2021/12/07 02:25:16;;;;;;;0.32;0.32;;;2.90;99.90;;;;;;4971300;28;20472;-66
2021/12/07 02:27:42;;;;;;;0.10;0.10;;;2.90;99.90;;;;;;4970830;28;20070;-66
2021/12/07 02:30:13;;;;;;;0.10;0.10;;;3.00;99.90;;;;;;4956605;29;20037;-66
2021/12/07 02:32:40;;;;;;;0.00;0.00;;;3.00;99.90;;;;;;4956378;28;20077;-66
2021/12/07 02:35:07;;;;;;;0.32;0.32;;;3.00;99.90;;;;;;4971187;28;20031;-66
2021/12/07 02:37:37;;;;;;;1.45;1.35;;;3.00;99.90;;;;;;4956101;28;20476;-66
2021/12/07 02:40:06;;;;;;;0.00;0.00;;;3.00;99.90;;;;;;4956233;28;20094;-66
2021/12/07 02:42:32;;;;;;;0.10;0.10;;;3.00;99.90;;;;;;4954779;29;20110;-65
2021/12/07 02:44:58;;;;;;;0.55;0.55;;;3.00;99.90;;;;;;4955925;28;20130;-66
2021/12/07 02:47:24;;;;;;;0.30;0.30;;;3.00;99.90;;;;;;4971257;28;20563;-65
2021/12/07 02:49:49;;;;;;;0.10;0.10;;;3.10;99.90;;;;;;4955914;29;20110;-65
2021/12/07 02:52:16;;;;;;;0.10;0.10;;;3.10;99.90;;;;;;4955881;28;20539;-65
2021/12/07 02:54:45;;;;;;;0.10;0.10;;;3.00;99.90;;;;;;4954627;29;20050;-65
2021/12/07 02:57:17;;;;;;;0.10;0.10;;;3.10;99.90;;;;;;4954820;29;20102;-65
2021/12/07 02:59:49;;;;;;;0.10;0.10;;;3.00;99.90;;;;;;4954255;29;20047;-65
2021/12/07 03:02:16;;;;;;;0.10;0.10;;;3.00;99.90;;;;;;4956018;28;20035;-65
2021/12/07 03:04:57;;;;;;;0.13;0.13;;;3.00;99.90;;;;;;4955875;28;20031;-65
2021/12/07 03:07:42;;;;;;;0.43;0.43;;;3.00;99.90;;;;;;4969162;28;20070;-65
2021/12/07 03:26:29;;;;;;;0.30;0.30;;;2.70;99.90;;;;;;4955285;28;20619;-66
2021/12/07 03:28:58;;;;;;;0.10;0.10;;;2.70;99.90;;;;;;4970476;28;20472;-66
2021/12/07 03:31:26;;;;;;;0.10;0.10;;;2.60;99.90;;;;;;4969623;28;20039;-66
2021/12/07 03:33:54;;;;;;;0.10;0.10;;;2.70;99.90;;;;;;4955199;28;20027;-66
2021/12/07 03:36:20;;;;;;;0.10;0.10;;;2.60;99.90;;;;;;4970222;28;20036;-66
2021/12/07 03:38:47;;;;;;;0.52;0.52;;;2.60;99.90;;;;;;4954865;28;20085;-66
2021/12/07 03:41:14;;;;;;;0.30;0.30;;;2.50;99.90;;;;;;4955075;28;20118;-65
2021/12/07 03:43:41;;;;;;;0.10;0.10;;;2.50;99.90;;;;;;4969672;28;20031;-66
2021/12/07 03:46:07;;;;;;;0.00;0.00;;;2.60;99.90;;;;;;4969188;28;20050;-66
2021/12/07 03:48:34;;;;;;;0.80;0.65;;;2.60;99.90;;;;;;4969427;28;20370;-67
2021/12/07 03:51:00;;;;;;;0.22;0.22;;;2.60;99.90;;;;;;4953727;29;20415;-66
2021/12/07 03:53:28;;;;;;;0.03;0.03;;;2.60;99.90;;;;;;4955018;28;20523;-65
2021/12/07 03:55:54;;;;;;;0.10;0.10;;;2.60;99.90;;;;;;4969595;28;20039;-66
2021/12/07 03:58:20;;;;;;;0.00;0.00;;;2.60;99.90;;;;;;4969616;28;20131;-66
2021/12/07 04:00:47;;;;;;;0.03;0.03;;;2.70;99.90;;;;;;4969343;28;20122;-65
2021/12/07 04:03:16;;;;;;;0.10;0.10;;;2.70;99.90;;;;;;4969571;28;20027;-66
2021/12/07 04:05:53;;;;;;;0.20;0.20;;;2.80;99.90;;;;;;4954589;28;20055;-65
2021/12/07 04:08:25;;;;;;;0.10;0.10;;;2.70;99.90;;;;;;4954748;28;20441;-65
2021/12/07 04:10:53;;;;;;;0.10;0.10;;;2.70;99.90;;;;;;4954837;28;20593;-66
2021/12/07 04:13:18;;;;;;;0.10;0.10;;;2.70;99.90;;;;;;4954474;28;20035;-66
2021/12/07 04:15:45;;;;;;;0.10;0.10;;;2.80;99.90;;;;;;4953235;29;20058;-66
2021/12/07 04:18:11;;;;;;;0.10;0.10;;;2.70;99.90;;;;;;4954409;28;20036;-64
2021/12/07 04:20:38;;;;;;;0.10;0.10;;;2.80;99.90;;;;;;4954425;28;20099;-65
2021/12/07 04:23:06;;;;;;;0.22;0.22;;;2.80;99.90;;;;;;4954517;28;20031;-65
2021/12/07 04:25:32;;;;;;;0.10;0.10;;;2.80;99.90;;;;;;4953292;29;20039;-66
2021/12/07 04:27:59;;;;;;;0.10;0.10;;;2.80;99.90;;;;;;4954424;28;20480;-66
2021/12/07 04:30:32;;;;;;;0.10;0.10;;;2.80;99.90;;;;;;4969414;28;20047;-66
2021/12/07 04:32:59;;;;;;;0.00;0.00;;;2.80;99.90;;;;;;4969134;28;20031;-66
2021/12/07 04:35:27;;;;;;;0.03;0.03;;;2.80;99.90;;;;;;4953140;29;20105;-66
2021/12/07 04:37:54;;;;;;;0.10;0.10;;;2.80;99.90;;;;;;4954093;28;20046;-66
2021/12/07 04:40:27;;;;;;;0.10;0.10;;;2.80;99.90;;;;;;4969010;28;20126;-66
2021/12/07 04:42:55;;;;;;;0.00;0.00;;;2.80;99.90;;;;;;4968361;28;20111;-66
2021/12/07 04:58:36;;;;;;;0.10;0.10;;;2.90;99.90;;;;;;4966129;28;20031;-65
2021/12/07 05:01:09;;;;;;;0.75;0.75;;;3.00;99.90;;;;;;4977280;28;20057;-66
2021/12/07 05:03:41;;;;;;;0.20;0.20;;;3.00;99.90;;;;;;4976754;28;20050;-66
2021/12/07 05:06:09;;;;;;;0.10;0.10;;;3.00;99.90;;;;;;4977020;28;20052;-65
2021/12/07 05:08:47;;;;;;;0.10;0.10;;;3.10;99.90;;;;;;4977254;28;20035;-65
2021/12/07 05:11:31;;;;;;;0.00;0.00;;;3.10;99.90;;;;;;4975992;28;20121;-64
2021/12/07 05:24:55;;;;;;;0.10;0.10;;;3.10;99.90;;;;;;4975864;28;20031;-64
2021/12/07 05:38:19;;;;;;;0.10;0.10;;;3.20;99.90;;;;;;4957473;28;20535;-63
2021/12/07 05:40:45;;;;;;;0.10;0.10;;;3.40;99.90;;;;;;4956870;29;20035;-63
2021/12/07 05:43:11;;;;;;;0.10;0.10;;;3.30;99.90;;;;;;4957212;28;20039;-64
2021/12/07 05:45:39;;;;;;;0.00;0.00;;;3.30;99.90;;;;;;4956933;28;20055;-63
2021/12/07 05:48:07;;;;;;;0.10;0.10;;;3.30;99.90;;;;;;4957319;28;20031;-63
2021/12/07 05:50:40;;;;;;;0.10;0.10;;;3.30;99.90;;;;;;4957213;28;20469;-63
2021/12/07 05:53:09;;;;;;;0.10;0.10;;;3.30;99.90;;;;;;4957374;28;20031;-66
2021/12/07 05:55:36;;;;;;;0.10;0.10;;;3.30;99.90;;;;;;4971664;28;20126;-64
2021/12/07 05:58:03;;;;;;;0.00;0.00;;;3.30;99.90;;;;;;4961221;28;20121;-64
2021/12/07 06:00:32;;;;;;;0.00;0.00;;;3.20;99.90;;;;;;4976207;28;20090;-65
2021/12/07 06:03:05;;;;;;;0.00;0.00;;;3.20;99.90;;;;;;4975851;28;20074;-66
2021/12/07 06:05:33;;;;;;;0.10;0.10;;;3.30;99.90;;;;;;4976130;28;20031;-64
2021/12/07 06:07:59;;;;;;;0.10;0.10;;;3.40;99.90;;;;;;4976352;28;20045;-63
2021/12/07 06:10:26;;;;;;;0.00;0.00;;;3.40;99.90;;;;;;4975365;28;20054;-65
2021/12/07 06:12:53;;;;;;;0.00;0.00;;;3.40;99.90;;;;;;4974762;28;20106;-66
2021/12/07 06:15:22;;;;;;;0.30;0.30;;;3.50;99.90;;;;;;4974794;28;20035;-66
2021/12/07 06:17:50;;;;;;;0.00;0.00;;;3.40;99.90;;;;;;4975893;28;20039;-66
2021/12/07 06:20:17;;;;;;;0.00;0.00;;;3.40;99.90;;;;;;4975257;28;20043;-67
2021/12/07 06:22:43;;;;;;;0.85;0.85;;;3.40;99.90;;;;;;4975674;28;20075;-68
2021/12/07 06:25:10;;;;;;;0.30;0.30;;;3.30;99.90;;;;;;4975935;28;20069;-66
2021/12/07 06:27:37;;;;;;;0.00;0.00;;;3.40;99.90;;;;;;4975813;28;20023;-68
2021/12/07 06:30:05;;;;;;;0.00;0.00;;;3.50;99.90;;;;;;4974498;28;20057;-67
2021/12/07 06:32:31;;;;;;;0.00;0.00;;;3.40;99.90;;;;;;4975607;28;20049;-67
2021/12/07 06:34:57;;;;;;;0.20;0.20;;;3.40;99.90;;;;;;4975550;28;20030;-66
2021/12/07 06:37:23;;;;;;;0.08;0.08;;;3.30;99.90;;;;;;4975300;28;20373;-67
2021/12/07 06:39:48;;;;;;;0.10;0.10;;;3.40;99.90;;;;;;4989788;28;20499;-67
2021/12/07 06:42:14;;;;;;;0.10;0.10;;;3.40;99.90;;;;;;4975500;28;20035;-67
2021/12/07 06:44:40;;;;;;;0.00;0.00;;;3.50;99.90;;;;;;4975201;28;20042;-67
2021/12/07 06:47:06;;;;;;;0.10;0.10;;;3.50;99.90;;;;;;4975283;28;20034;-66
2021/12/07 06:49:32;;;;;;;0.00;0.00;;;3.60;99.90;;;;;;4975419;28;20035;-67
2021/12/07 06:51:58;;;;;;;0.68;0.68;;;3.50;99.90;;;;;;4975246;28;20035;-67
2021/12/07 06:54:25;;;;;;;0.00;0.00;;;3.50;99.90;;;;;;4974044;28;20038;-67
2021/12/07 06:56:55;;;;;;;0.00;0.00;;;3.50;99.90;;;;;;4989758;28;20035;-68
2021/12/07 06:59:21;;;;;;;0.03;0.03;;;3.40;99.90;;;;;;4973574;28;20130;-68
2021/12/07 07:01:51;;;;;;;0.00;0.00;;;3.40;99.90;;;;;;4975177;28;20027;-66
2021/12/07 07:04:17;;;;;;;0.00;0.00;;;3.40;99.90;;;;;;4973678;28;20031;-66
2021/12/07 07:06:43;;;;;;;0.00;0.00;;;3.50;99.90;;;;;;4975109;28;20035;-66
2021/12/07 07:09:10;;;;;;;0.20;0.20;;;3.50;99.90;;;;;;4974822;28;20468;-66
2021/12/07 07:11:37;;;;;;;0.00;0.00;;;3.70;99.90;;;;;;4973467;28;20038;-65
2021/12/07 07:14:04;;;;;;;0.20;0.20;;;3.60;99.90;;;;;;4974524;28;20530;-66
2021/12/07 07:16:31;;;;;;;0.40;0.40;;;3.60;99.90;;;;;;4975074;28;20459;-66
2021/12/07 07:19:00;;;;;;;0.00;0.00;;;3.60;99.90;;;;;;4972872;28;20027;-66
2021/12/07 07:21:26;;;;;;;0.10;0.10;;;3.70;99.90;;;;;;4973741;28;20051;-66
2021/12/07 07:23:53;;;;;;;0.00;0.00;;;3.70;99.90;;;;;;4974659;28;20039;-66
2021/12/07 07:26:22;;;;;;;1.55;0.68;;;3.70;99.90;;;;;;4974771;28;20487;-66
2021/12/07 07:28:48;;;;;;;0.00;0.00;;;3.70;99.90;;;;;;4974330;28;20047;-66
2021/12/07 07:31:14;;;;;;;0.00;0.00;;;3.70;99.90;;;;;;4974772;28;20035;-67
2021/12/07 07:33:41;;;;;;;0.10;0.10;;;3.80;99.90;;;;;;4974324;28;20093;-67
2021/12/07 07:36:07;;;;;;;0.65;0.35;;;3.80;99.90;;;;;;4974556;28;20436;-67
2021/12/07 07:38:33;;;;;;;0.13;0.13;;;3.70;99.90;;;;;;4974396;28;20094;-67
2021/12/07 07:41:00;;;;;;;0.10;0.10;;;3.80;99.90;;;;;;4974206;28;20388;-67
2021/12/07 07:43:26;;;;;;;0.13;0.13;;;3.70;99.90;;;;;;4974609;28;20039;-67
2021/12/07 07:45:55;;;;;;;0.10;0.10;;;3.70;99.90;;;;;;4973838;28;20389;-66
2021/12/07 07:48:22;;;;;;;0.10;0.10;;;3.60;99.90;;;;;;4974271;28;20035;-67
2021/12/07 07:50:50;;;;;;;0.95;0.95;;;3.60;99.90;;;;;;4973649;28;20034;-67
2021/12/07 07:53:16;;;;;;;0.00;0.00;;;3.50;99.90;;;;;;4972817;28;20069;-67
2021/12/07 07:55:43;;;;;;;0.13;0.13;;;3.60;99.90;;;;;;4974285;28;20357;-67
2021/12/07 07:58:11;;;;;;;0.10;0.10;;;3.60;99.90;;;;;;4973028;28;20105;-67
2021/12/07 08:00:38;;;;;;;1.30;1.20;;;3.60;99.90;;;;;;4973769;28;20042;-67
2021/12/07 08:03:04;;;;;;;0.00;0.00;;;3.70;99.90;;;;;;4973758;28;20369;-66
2021/12/07 08:05:30;;;;;;;0.10;0.10;;;3.80;99.90;;;;;;4973901;28;20113;-66
2021/12/07 08:07:56;;;;;;;0.10;0.10;;;3.80;99.90;;;;;;4974055;28;20034;-67
2021/12/07 08:10:28;;;;;;;0.00;0.00;;;3.80;99.90;;;;;;4972342;28;20039;-67
2021/12/07 08:12:59;;;;;;;0.20;0.20;;;3.80;99.90;;;;;;4972804;28;20520;-66
2021/12/07 08:15:32;;;;;;;0.30;0.30;;;3.90;99.90;;;;;;4972589;28;20035;-66
2021/12/07 08:17:58;;;;;;;0.25;0.25;;;3.90;99.90;;;;;;4973683;28;20085;-67
2021/12/07 08:20:25;;;;;;;0.38;0.38;;;4.00;99.90;;;;;;4973760;28;20117;-67
2021/12/07 08:22:51;;;;;;;0.05;0.05;;;3.90;99.90;;;;;;4973610;28;20391;-67
2021/12/07 08:25:17;;;;;;;0.10;0.10;;;4.00;99.90;;;;;;4973895;28;20031;-67
2021/12/07 08:27:43;;;;;;;0.10;0.10;;;4.00;99.90;;;;;;4972358;28;20031;-67
2021/12/07 08:30:12;;;;;;;0.00;0.00;;;4.00;99.90;;;;;;4973736;28;20483;-67
2021/12/07 08:32:39;;;;;;;0.10;0.10;;;3.90;99.90;;;;;;4973273;28;20097;-67
2021/12/07 08:35:05;;;;;;;0.10;0.10;;;3.90;99.90;;;;;;4972016;28;20352;-67
2021/12/07 08:37:31;;;;;;;0.55;0.55;;;3.90;99.90;;;;;;4974045;28;20069;-67
2021/12/07 08:39:57;;;;;;;0.00;0.00;;;4.00;99.90;;;;;;4973393;28;20071;-67
2021/12/07 08:42:23;;;;;;;0.30;0.30;;;4.00;99.90;;;;;;4973674;28;20023;-67
2021/12/07 08:44:49;;;;;;;0.40;0.40;;;4.00;99.90;;;;;;4973093;28;20197;-66
2021/12/07 08:47:14;;;;;;;0.10;0.10;;;3.90;99.90;;;;;;4971922;28;20419;-66
2021/12/07 08:49:40;;;;;;;0.10;0.10;;;3.90;99.90;;;;;;4973302;28;20046;-66
2021/12/07 08:52:06;;;;;;;0.95;0.95;;;4.00;99.90;;;;;;4973249;28;20039;-66
2021/12/07 08:59:38;;;;;;;0.00;0.00;;;4.10;99.90;;;;;;4973680;28;20118;-67
2021/12/07 09:00:25;;;;;;;0.10;0.10;;;4.10;99.90;;;;;;5009832;28;20481;-67
2021/12/07 09:02:51;;;;;;;0.10;0.10;;;4.10;99.90;;;;;;5010028;28;20549;-67
2021/12/07 09:05:17;;;;;;;0.75;0.75;;;4.10;99.90;;;;;;4992155;28;20609;-67
2021/12/07 09:07:46;;;;;;;0.00;0.00;;;4.20;99.90;;;;;;4972816;28;20468;-66
2021/12/07 09:10:12;;;;;;;0.10;0.10;;;4.20;99.90;;;;;;4972093;28;20553;-67
2021/12/07 09:12:38;;;;;;;0.00;0.00;;;4.20;99.90;;;;;;4972848;28;20039;-66
2021/12/07 09:15:05;;;;;;;0.05;0.05;;;4.20;99.90;;;;;;4973307;28;20035;-66
2021/12/07 09:17:31;;;;;;;0.00;0.00;;;4.40;99.90;;;;;;4972182;28;20073;-67
2021/12/07 09:19:57;;;;;;;0.10;0.10;;;4.40;99.90;;;;;;4972049;28;20089;-67
2021/12/07 09:22:25;;;;;;;12.02;2.80;;;4.60;99.90;;;;;;4973388;28;20121;-67
2021/12/07 09:24:51;;;;;;;0.20;0.20;;;4.60;99.90;;;;;;4973089;28;20523;-67
2021/12/07 09:27:17;;;;;;;0.20;0.20;;;4.70;99.90;;;;;;4971809;28;20159;-67
2021/12/07 09:29:42;;;;;;;0.10;0.10;;;4.70;99.90;;;;;;4973218;28;20085;-67
2021/12/07 09:32:08;;;;;;;0.10;0.10;;;4.80;99.90;;;;;;4973013;28;20062;-67
2021/12/07 09:34:34;;;;;;;0.10;0.10;;;4.90;99.90;;;;;;4972999;28;20043;-67
2021/12/07 09:37:00;;;;;;;0.00;0.00;;;5.10;99.90;;;;;;4971720;28;20027;-67
2021/12/07 09:39:26;;;;;;;0.10;0.10;;;5.20;99.90;;;;;;4972935;28;20078;-67
2021/12/07 09:41:52;;;;;;;0.00;0.00;;;5.20;99.90;;;;;;4971544;28;20507;-67
2021/12/07 09:44:18;;;;;;;0.17;0.17;;;5.20;99.90;;;;;;4971775;28;20067;-68
2021/12/07 09:46:44;;;;;;;0.10;0.10;;;5.20;99.90;;;;;;4975129;28;20480;-67
2021/12/07 09:49:11;;;;;;;0.70;0.70;;;5.10;99.90;;;;;;4975057;28;20472;-87
2021/12/07 09:51:39;;;;;;;0.10;0.10;;;5.20;99.90;;;;;;4976718;28;20121;-68
2021/12/07 09:54:11;;;;;;;0.00;0.00;;;5.20;99.90;;;;;;4975146;28;20026;-67
2021/12/07 09:56:38;;;;;;;0.63;0.63;;;5.20;99.90;;;;;;4976335;28;20041;-67
2021/12/07 09:59:08;;;;;;;0.10;0.10;;;5.30;99.90;;;;;;4976072;28;20030;-66
2021/12/07 10:01:35;;;;;;;0.10;0.10;;;5.20;99.90;;;;;;4976502;28;20089;-66
2021/12/07 10:04:01;;;;;;;0.15;0.15;;;5.30;99.90;;;;;;4959109;28;20023;-68
2021/12/07 10:06:26;;;;;;;0.10;0.10;;;5.30;99.90;;;;;;4976356;28;20039;-68
2021/12/07 10:08:52;;;;;;;0.47;0.47;;;5.30;99.90;;;;;;4974519;28;20042;-67
2021/12/07 10:11:18;;;;;;;0.13;0.13;;;5.40;99.90;;;;;;4976216;28;20030;-66
2021/12/07 10:13:50;;;;;;;0.13;0.13;;;5.60;99.90;;;;;;4975816;28;20472;-66
2021/12/07 10:16:18;;;;;;;0.10;0.10;;;5.80;99.90;;;;;;4976147;28;20045;-67
2021/12/07 10:18:45;;;;;;;0.35;0.35;;;5.80;99.90;;;;;;4975977;28;20042;-67
2021/12/07 10:21:27;;;;;;;0.05;0.05;;;5.70;99.90;;;;;;4958297;28;20484;-67
2021/12/07 10:24:07;;;;;;;0.00;0.00;;;5.70;99.90;;;;;;4975825;28;20042;-67
2021/12/07 10:26:38;;;;;;;0.30;0.30;;;6.00;99.90;;;;;;4975767;28;20126;-67
2021/12/07 10:29:14;;;;;;;0.00;0.00;;;6.20;99.90;;;;;;4975629;28;20035;-68
2021/12/07 10:31:54;;;;;;;0.00;0.00;;;6.40;99.90;;;;;;4975733;28;20039;-68
2021/12/07 10:34:30;;;;;;;0.00;0.00;;;6.90;99.90;;;;;;4976000;28;20494;-68
2021/12/07 10:37:10;;;;;;;0.00;0.00;;;8.10;99.90;;;;;;4974450;28;20055;-67
2021/12/07 10:39:45;;;;;;;0.00;0.00;;;8.50;99.90;;;;;;4974367;28;20089;-67
2021/12/07 10:42:22;;;;;;;0.00;0.00;;;8.20;99.90;;;;;;4975404;28;20775;-67
2021/12/07 10:44:49;;;;;;;0.00;0.00;;;8.90;99.90;;;;;;4974057;28;20042;-67
2021/12/07 10:47:18;;;;;;;4.03;1.45;;;9.90;99.90;;;;;;4974191;28;20034;-68
2021/12/07 10:50:13;;;;;;;0.00;0.00;;;10.60;99.90;;;;;;4974161;28;20035;-68
2021/12/07 10:52:42;;;;;;;0.00;0.00;;;9.80;99.90;;;;;;4973944;28;20117;-69
2021/12/07 10:55:19;;;;;;;0.20;0.20;;;9.90;99.90;;;;;;4973855;28;20027;-63
2021/12/07 10:58:04;;;;;;;0.03;0.03;;;8.70;99.90;;;;;;4976367;28;20296;-69
2021/12/07 11:00:42;;;;;;;0.00;0.00;;;8.60;99.90;;;;;;4975379;28;20030;-67
2021/12/07 11:03:17;;;;;;;0.00;0.00;;;8.90;99.90;;;;;;4973678;28;20361;-67
2021/12/07 11:05:53;;;;;;;0.00;0.00;;;8.80;99.90;;;;;;4973884;28;20031;-63
2021/12/07 11:08:27;;;;;;;0.30;0.30;;;10.20;99.70;;;;;;4974951;28;20031;-63
2021/12/07 11:10:54;;;;;;;0.32;0.32;;;10.10;99.70;;;;;;4974130;28;20031;-64
2021/12/07 11:13:33;;;;;;;0.00;0.00;;;10.30;99.90;;;;;;4973610;28;20395;-64
2021/12/07 11:16:05;;;;;;;0.00;0.00;;;8.30;99.90;;;;;;4958825;28;20031;-62
2021/12/07 11:18:43;;;;;;;0.00;0.00;;;7.40;99.90;;;;;;4973668;28;20031;-61
2021/12/07 11:21:16;;;;;;;0.00;0.00;;;7.10;99.90;;;;;;4974575;28;20118;-68
2021/12/07 11:23:51;;;;;;;0.00;0.00;;;7.50;99.90;;;;;;4973305;28;20067;-66
2021/12/07 11:31:46;;;;;;;0.03;0.03;;;7.70;99.90;;;;;;4973625;28;20031;-67
2021/12/07 11:34:22;;;;;;;0.13;0.13;;;8.10;99.90;;;;;;4973324;28;20034;-66
2021/12/07 11:36:55;;;;;;;0.03;0.03;;;8.20;99.90;;;;;;4974233;28;20488;-66
2021/12/07 11:39:48;;;;;;;0.00;0.00;;;8.60;99.90;;;;;;4974363;28;20416;-67
2021/12/07 11:42:17;;;;;;;0.00;0.00;;;9.20;99.90;;;;;;4972942;28;20090;-67
2021/12/07 11:45:06;;;;;;;0.03;0.03;;;8.90;99.90;;;;;;4973728;28;20061;-67
2021/12/07 11:47:49;;;;;;;0.08;0.08;;;9.30;99.90;;;;;;4974260;28;20049;-68
2021/12/07 11:50:36;;;;;;;0.00;0.00;;;9.50;99.90;;;;;;4974269;28;20042;-68
2021/12/07 11:53:17;;;;;;;0.00;0.00;;;8.90;99.90;;;;;;4974067;28;20041;-68
2021/12/07 11:55:49;;;;;;;0.20;0.20;;;8.70;99.90;;;;;;4972791;28;20035;-67
2021/12/07 11:58:15;;;;;;;;;;;8.70;99.90;;;;;;4974617;28;20102;-67
2021/12/07 12:00:49;;;;;;;0.10;0.10;;;8.50;99.90;;;;;;4972963;28;19960;-67
2021/12/07 12:03:18;;;;;;;0.00;0.00;;;8.00;99.90;;;;;;4973734;28;20038;-67
2021/12/07 12:05:47;;;;;;;0.00;0.00;;;7.50;99.90;;;;;;4956836;28;20111;-67
2021/12/07 12:08:16;;;;;;;0.10;0.10;;;7.30;99.90;;;;;;4973531;28;20037;-67
2021/12/07 12:10:48;;;;;;;0.00;0.00;;;7.30;99.90;;;;;;4973831;28;20086;-67
2021/12/07 12:13:42;;;;;;;0.00;0.00;;;7.20;99.90;;;;;;4956493;28;20093;-67
2021/12/07 12:16:49;;;;;;;0.13;0.13;;;7.60;99.90;;;;;;4972778;28;20590;-67
2021/12/07 12:19:36;;;;;;;0.00;0.00;;;8.40;99.90;;;;;;4981292;28;20129;-68
2021/12/07 12:22:21;;;;;;;0.03;0.03;;;7.90;99.90;;;;;;4973692;28;20109;-67
2021/12/07 12:24:52;;;;;;;0.00;0.00;;;8.10;99.90;;;;;;4973564;28;20034;-68
2021/12/07 12:27:33;;;;;;;0.00;0.00;;;8.40;99.90;;;;;;4972437;28;20038;-68
2021/12/07 12:30:25;;;;;;;0.00;0.00;;;8.50;99.90;;;;;;4956890;28;20030;-66
2021/12/07 12:33:05;;;;;;;0.03;0.03;;;8.90;99.90;;;;;;4965852;28;20038;-67
2021/12/07 12:35:41;;;;;;;0.10;0.10;;;9.50;99.90;;;;;;4972136;28;20042;-66
2021/12/07 12:38:26;;;;;;;0.10;0.10;;;9.80;99.90;;;;;;4971934;28;20031;-67
2021/12/07 12:41:08;;;;;;;0.00;0.00;;;10.10;98.90;;;;;;4972472;28;20034;-66
2021/12/07 12:43:59;;;;;;;0.00;0.00;;;10.40;98.00;;;;;;4973439;28;20030;-66
2021/12/07 12:46:37;;;;;;;0.65;0.65;;;9.60;99.60;;;;;;4972144;28;20525;-66
2021/12/07 12:49:13;;;;;;;0.00;0.00;;;9.20;99.90;;;;;;4973039;28;20141;-67
2021/12/07 12:51:49;;;;;;;0.22;0.22;;;9.60;99.40;;;;;;4972332;28;20053;-67
2021/12/07 12:54:17;;;;;;;0.43;0.43;;;9.70;99.80;;;;;;4973100;28;20034;-67
2021/12/07 12:56:43;;;;;;;0.38;0.38;;;9.90;99.70;;;;;;4973203;28;20455;-67
2021/12/07 12:59:12;;;;;;;0.00;0.00;;;9.40;99.90;;;;;;4955478;28;20117;-67
2021/12/07 13:01:44;;;;;;;0.00;0.00;;;9.60;99.60;;;;;;4973359;28;20035;-67
2021/12/07 13:04:26;;;;;;;0.00;0.00;;;9.20;99.70;;;;;;4972817;28;20046;-67
2021/12/07 13:07:05;;;;;;;1.08;1.08;;;8.70;99.90;;;;;;4973570;28;20034;-67
2021/12/07 13:09:39;;;;;;;0.00;0.00;;;8.70;99.90;;;;;;4971664;28;20027;-67
2021/12/07 13:12:08;;;;;;;0.70;0.70;;;8.50;99.90;;;;;;4972608;28;20122;-67
2021/12/07 13:14:49;;;;;;;0.22;0.17;;;8.30;99.90;;;;;;4987922;28;20066;-66
2021/12/07 13:17:22;;;;;;;10.55;0.68;;;8.30;99.90;;;;;;4972960;28;20097;-67
2021/12/07 13:20:26;;;;;;;0.20;0.20;;;8.60;99.90;;;;;;4973399;28;20043;-66
2021/12/07 13:23:13;;;;;;;0.10;0.10;;;9.10;99.90;;;;;;4976796;28;20035;-67
2021/12/07 13:25:52;;;;;;;0.00;0.00;;;8.30;99.90;;;;;;4976830;28;20031;-66
2021/12/07 13:28:29;;;;;;;0.00;0.00;;;8.10;99.90;;;;;;4976738;28;20093;-66
2021/12/07 13:31:17;;;;;;;0.20;0.20;;;8.00;99.90;;;;;;4976701;28;20062;-67
2021/12/07 13:33:57;;;;;;;0.00;0.00;;;8.00;99.90;;;;;;4975599;28;20027;-67
2021/12/07 13:36:48;;;;;;;0.03;0.03;;;8.20;99.90;;;;;;4976273;28;20053;-67
2021/12/07 13:39:14;;;;;;;0.00;0.00;;;8.50;99.90;;;;;;4975041;28;20492;-67
2021/12/07 13:41:49;;;;;;;0.00;0.00;;;8.80;99.90;;;;;;4976189;28;20039;-67
2021/12/07 13:44:16;;;;;;;0.00;0.00;;;9.00;99.90;;;;;;4974929;28;20034;-67
2021/12/07 13:46:42;;;;;;;0.00;0.00;;;9.20;99.90;;;;;;4975927;28;20102;-67
2021/12/07 13:49:12;;;;;;;0.32;0.32;;;9.30;99.90;;;;;;4976019;28;20038;-67
2021/12/07 13:51:41;;;;;;;0.00;0.00;;;9.20;99.90;;;;;;4976087;28;20031;-67
2021/12/07 13:54:16;;;;;;;0.00;0.00;;;9.50;99.90;;;;;;4976305;28;20041;-67
2021/12/07 13:56:47;;;;;;;0.20;0.20;;;9.50;99.90;;;;;;4976587;28;20034;-67
2021/12/07 13:59:18;;;;;;;0.00;0.00;;;9.40;99.90;;;;;;4975802;28;20027;-67
2021/12/07 14:01:58;;;;;;;0.10;0.10;;;9.10;99.90;;;;;;4974974;28;20046;-67
2021/12/07 14:04:27;;;;;;;1.05;1.05;;;8.80;99.90;;;;;;4974772;28;20070;-67
2021/12/07 14:06:54;;;;;;;0.00;0.00;;;8.60;99.90;;;;;;4974742;28;20062;-66
2021/12/07 14:09:21;;;;;;;0.00;0.00;;;8.50;99.90;;;;;;4974878;28;20322;-66
2021/12/07 14:11:58;;;;;;;0.00;0.00;;;8.30;99.90;;;;;;4976023;28;20093;-67
2021/12/07 14:14:25;;;;;;;0.00;0.00;;;8.20;99.90;;;;;;4975099;28;20093;-67
2021/12/07 14:16:59;;;;;;;0.47;0.47;;;7.90;99.90;;;;;;4974656;28;20038;-67
2021/12/07 14:19:25;;;;;;;0.03;0.03;;;7.70;99.90;;;;;;4974426;28;20085;-67
2021/12/07 14:21:53;;;;;;;0.20;0.20;;;7.40;99.90;;;;;;4975671;28;20027;-67
2021/12/07 14:24:20;;;;;;;0.10;0.10;;;7.00;99.90;;;;;;4974208;28;20097;-67
2021/12/07 14:26:48;;;;;;;0.05;0.05;;;6.80;99.90;;;;;;4974549;28;20038;-67
2021/12/07 14:29:22;;;;;;;0.10;0.10;;;6.90;99.90;;;;;;4975780;28;20035;-67
2021/12/07 14:31:58;;;;;;;0.40;0.40;;;6.80;99.90;;;;;;4975120;28;20435;-67
2021/12/07 14:34:33;;;;;;;0.10;0.10;;;7.00;99.90;;;;;;4974174;28;20039;-67
2021/12/07 14:37:06;;;;;;;0.60;0.60;;;6.90;99.90;;;;;;4975519;28;20035;-67
2021/12/07 14:39:41;;;;;;;0.00;0.00;;;6.70;99.90;;;;;;4958651;28;20038;-65
2021/12/07 14:42:14;;;;;;;0.17;0.17;;;6.60;99.90;;;;;;4975453;28;20038;-66
2021/12/07 14:44:49;;;;;;;0.10;0.10;;;6.50;99.90;;;;;;4973992;28;20034;-66
2021/12/07 14:47:16;;;;;;;0.30;0.30;;;6.40;99.90;;;;;;4974115;28;20106;-67
2021/12/07 14:49:52;;;;;;;0.28;0.28;;;6.40;99.90;;;;;;4973954;28;20043;-66
2021/12/07 14:52:25;;;;;;;0.00;0.00;;;6.40;99.90;;;;;;4975030;28;20038;-66
2021/12/07 14:54:54;;;;;;;0.10;0.10;;;6.40;99.90;;;;;;4974719;28;20487;-66
2021/12/07 14:57:21;;;;;;;0.28;0.28;;;6.30;99.90;;;;;;4974932;28;20117;-65